sensor_id;sensor_type;location;lat;lon;timestamp;P1;durP1;ratioP1;P2;durP2;ratioP2
22774;SDS011;11554;51.106;3.684;2023-01-05T00:00:00;40.90;;;6.00;;
22774;SDS011;11554;51.106;3.684;2023-01-05T00:05:00;40.90;;;6.00;;
22774;SDS011;11554;51.106;3.684;2023-01-05T00:10:01;35.60;;;5.10;;
22774;SDS011;11554;51.106;3.684;2023-01-05T00:15:00;35.60;;;5.10;;
22774;SDS011;11554;51.106;3.684;2023-01-05T00:20:01;36.30;;;5.30;;
22774;SDS011;11554;51.106;3.684;2023-01-05T00:25:02;36.30;;;5.30;;
22774;SDS011;11554;51.106;3.684;2023-01-05T00:30:01;33.90;;;5.10;;
22774;SDS011;11554;51.106;3.684;2023-01-05T00:35:01;33.90;;;5.10;;
22774;SDS011;11554;51.106;3.684;2023-01-05T00:40:00;38.30;;;6.20;;
22774;SDS011;11554;51.106;3.684;2023-01-05T00:45:00;38.30;;;6.20;;
22774;SDS011;11554;51.106;3.684;2023-01-05T00:50:00;36.10;;;5.60;;
22774;SDS011;11554;51.106;3.684;2023-01-05T00:55:00;36.10;;;5.60;;
22774;SDS011;11554;51.106;3.684;2023-01-05T01:00:00;34.70;;;5.10;;
22774;SDS011;11554;51.106;3.684;2023-01-05T01:05:00;34.70;;;5.10;;
22774;SDS011;11554;51.106;3.684;2023-01-05T01:10:01;29.40;;;4.10;;
22774;SDS011;11554;51.106;3.684;2023-01-05T01:15:00;29.40;;;4.10;;
22774;SDS011;11554;51.106;3.684;2023-01-05T01:20:00;36.20;;;5.60;;
22774;SDS011;11554;51.106;3.684;2023-01-05T01:25:00;36.20;;;5.60;;
22774;SDS011;11554;51.106;3.684;2023-01-05T01:30:00;33.00;;;5.10;;
22774;SDS011;11554;51.106;3.684;2023-01-05T01:35:00;33.00;;;5.10;;
22774;SDS011;11554;51.106;3.684;2023-01-05T01:40:00;35.70;;;4.60;;
22774;SDS011;11554;51.106;3.684;2023-01-05T01:45:04;35.70;;;4.60;;
22774;SDS011;11554;51.106;3.684;2023-01-05T01:50:03;28.90;;;4.50;;
22774;SDS011;11554;51.106;3.684;2023-01-05T01:55:01;28.90;;;4.50;;
22774;SDS011;11554;51.106;3.684;2023-01-05T02:00:03;33.20;;;4.80;;
22774;SDS011;11554;51.106;3.684;2023-01-05T02:05:03;33.20;;;4.80;;
22774;SDS011;11554;51.106;3.684;2023-01-05T02:10:01;36.10;;;5.10;;
22774;SDS011;11554;51.106;3.684;2023-01-05T02:15:10;36.10;;;5.10;;
22774;SDS011;11554;51.106;3.684;2023-01-05T02:20:17;42.40;;;6.00;;
22774;SDS011;11554;51.106;3.684;2023-01-05T02:25:15;42.40;;;6.00;;
22774;SDS011;11554;51.106;3.684;2023-01-05T02:30:14;34.70;;;5.60;;
22774;SDS011;11554;51.106;3.684;2023-01-05T02:35:08;34.70;;;5.60;;
22774;SDS011;11554;51.106;3.684;2023-01-05T02:40:05;39.80;;;6.40;;
22774;SDS011;11554;51.106;3.684;2023-01-05T02:45:00;39.80;;;6.40;;
22774;SDS011;11554;51.106;3.684;2023-01-05T02:50:03;42.40;;;6.30;;
22774;SDS011;11554;51.106;3.684;2023-01-05T02:55:03;42.40;;;6.30;;
22774;SDS011;11554;51.106;3.684;2023-01-05T03:00:00;36.80;;;5.10;;
22774;SDS011;11554;51.106;3.684;2023-01-05T03:05:04;36.80;;;5.10;;
22774;SDS011;11554;51.106;3.684;2023-01-05T03:10:00;42.10;;;6.00;;
22774;SDS011;11554;51.106;3.684;2023-01-05T03:15:03;42.10;;;6.00;;
22774;SDS011;11554;51.106;3.684;2023-01-05T03:20:01;38.90;;;5.70;;
22774;SDS011;11554;51.106;3.684;2023-01-05T03:25:00;38.90;;;5.70;;
22774;SDS011;11554;51.106;3.684;2023-01-05T03:30:00;39.60;;;5.80;;
22774;SDS011;11554;51.106;3.684;2023-01-05T03:35:02;39.60;;;5.80;;
22774;SDS011;11554;51.106;3.684;2023-01-05T03:40:02;34.50;;;5.40;;
22774;SDS011;11554;51.106;3.684;2023-01-05T03:45:00;34.50;;;5.40;;
22774;SDS011;11554;51.106;3.684;2023-01-05T03:50:00;35.30;;;5.90;;
22774;SDS011;11554;51.106;3.684;2023-01-05T03:55:00;35.30;;;5.90;;
22774;SDS011;11554;51.106;3.684;2023-01-05T04:00:00;34.80;;;5.80;;
22774;SDS011;11554;51.106;3.684;2023-01-05T04:05:00;34.80;;;5.80;;
22774;SDS011;11554;51.106;3.684;2023-01-05T04:10:00;40.90;;;5.30;;
22774;SDS011;11554;51.106;3.684;2023-01-05T04:15:00;40.90;;;5.30;;
22774;SDS011;11554;51.106;3.684;2023-01-05T04:20:00;37.70;;;5.80;;
22774;SDS011;11554;51.106;3.684;2023-01-05T04:25:00;37.70;;;5.80;;
22774;SDS011;11554;51.106;3.684;2023-01-05T04:30:00;45.00;;;6.50;;
22774;SDS011;11554;51.106;3.684;2023-01-05T04:35:00;45.00;;;6.50;;
22774;SDS011;11554;51.106;3.684;2023-01-05T04:40:00;35.20;;;6.00;;
22774;SDS011;11554;51.106;3.684;2023-01-05T04:45:00;35.20;;;6.00;;
22774;SDS011;11554;51.106;3.684;2023-01-05T04:50:00;38.00;;;5.20;;
22774;SDS011;11554;51.106;3.684;2023-01-05T04:55:00;38.00;;;5.20;;
22774;SDS011;11554;51.106;3.684;2023-01-05T05:00:01;36.70;;;5.80;;
22774;SDS011;11554;51.106;3.684;2023-01-05T05:05:00;36.70;;;5.80;;
22774;SDS011;11554;51.106;3.684;2023-01-05T05:10:00;42.60;;;6.40;;
22774;SDS011;11554;51.106;3.684;2023-01-05T05:15:00;42.60;;;6.40;;
22774;SDS011;11554;51.106;3.684;2023-01-05T05:20:00;42.70;;;6.10;;
22774;SDS011;11554;51.106;3.684;2023-01-05T05:25:00;42.70;;;6.10;;
22774;SDS011;11554;51.106;3.684;2023-01-05T05:30:00;42.30;;;6.80;;
22774;SDS011;11554;51.106;3.684;2023-01-05T05:35:00;42.30;;;6.80;;
22774;SDS011;11554;51.106;3.684;2023-01-05T05:40:00;37.20;;;6.20;;
22774;SDS011;11554;51.106;3.684;2023-01-05T05:45:00;37.20;;;6.20;;
22774;SDS011;11554;51.106;3.684;2023-01-05T05:50:00;43.80;;;6.40;;
22774;SDS011;11554;51.106;3.684;2023-01-05T05:55:00;43.80;;;6.40;;
22774;SDS011;11554;51.106;3.684;2023-01-05T06:00:00;41.90;;;7.10;;
22774;SDS011;11554;51.106;3.684;2023-01-05T06:05:00;41.90;;;7.10;;
22774;SDS011;11554;51.106;3.684;2023-01-05T06:10:00;48.10;;;7.00;;
22774;SDS011;11554;51.106;3.684;2023-01-05T06:15:00;48.10;;;7.00;;
22774;SDS011;11554;51.106;3.684;2023-01-05T06:20:00;39.90;;;6.20;;
22774;SDS011;11554;51.106;3.684;2023-01-05T06:25:00;39.90;;;6.20;;
22774;SDS011;11554;51.106;3.684;2023-01-05T06:30:00;41.60;;;6.40;;
22774;SDS011;11554;51.106;3.684;2023-01-05T06:35:00;41.60;;;6.40;;
22774;SDS011;11554;51.106;3.684;2023-01-05T06:40:00;42.50;;;6.40;;
22774;SDS011;11554;51.106;3.684;2023-01-05T06:45:00;42.50;;;6.40;;
22774;SDS011;11554;51.106;3.684;2023-01-05T06:50:00;43.90;;;6.30;;
22774;SDS011;11554;51.106;3.684;2023-01-05T06:55:00;43.90;;;6.30;;
22774;SDS011;11554;51.106;3.684;2023-01-05T07:00:00;42.40;;;6.80;;
22774;SDS011;11554;51.106;3.684;2023-01-05T07:05:00;42.40;;;6.80;;
22774;SDS011;11554;51.106;3.684;2023-01-05T07:10:00;36.10;;;5.90;;
22774;SDS011;11554;51.106;3.684;2023-01-05T07:15:00;36.10;;;5.90;;
22774;SDS011;11554;51.106;3.684;2023-01-05T07:20:00;43.40;;;6.40;;
22774;SDS011;11554;51.106;3.684;2023-01-05T07:25:00;43.40;;;6.40;;
22774;SDS011;11554;51.106;3.684;2023-01-05T07:30:00;49.10;;;7.00;;
22774;SDS011;11554;51.106;3.684;2023-01-05T07:35:00;49.10;;;7.00;;
22774;SDS011;11554;51.106;3.684;2023-01-05T07:40:00;49.50;;;6.70;;
22774;SDS011;11554;51.106;3.684;2023-01-05T07:45:00;49.50;;;6.70;;
22774;SDS011;11554;51.106;3.684;2023-01-05T07:50:00;57.70;;;7.10;;
22774;SDS011;11554;51.106;3.684;2023-01-05T07:55:00;57.70;;;7.10;;
22774;SDS011;11554;51.106;3.684;2023-01-05T08:00:00;40.50;;;5.90;;
22774;SDS011;11554;51.106;3.684;2023-01-05T08:05:00;40.50;;;5.90;;
22774;SDS011;11554;51.106;3.684;2023-01-05T08:10:00;40.70;;;7.00;;
22774;SDS011;11554;51.106;3.684;2023-01-05T08:15:00;40.70;;;7.00;;
22774;SDS011;11554;51.106;3.684;2023-01-05T08:20:00;51.20;;;6.50;;
22774;SDS011;11554;51.106;3.684;2023-01-05T08:25:00;51.20;;;6.50;;
22774;SDS011;11554;51.106;3.684;2023-01-05T08:30:00;51.40;;;6.90;;
22774;SDS011;11554;51.106;3.684;2023-01-05T08:35:00;51.40;;;6.90;;
22774;SDS011;11554;51.106;3.684;2023-01-05T08:40:00;43.90;;;6.60;;
22774;SDS011;11554;51.106;3.684;2023-01-05T08:45:00;43.90;;;6.60;;
22774;SDS011;11554;51.106;3.684;2023-01-05T08:50:00;36.40;;;6.30;;
22774;SDS011;11554;51.106;3.684;2023-01-05T08:55:00;36.40;;;6.30;;
22774;SDS011;11554;51.106;3.684;2023-01-05T09:00:00;42.20;;;6.50;;
22774;SDS011;11554;51.106;3.684;2023-01-05T09:05:00;42.20;;;6.50;;
22774;SDS011;11554;51.106;3.684;2023-01-05T09:10:00;38.90;;;6.20;;
22774;SDS011;11554;51.106;3.684;2023-01-05T09:15:00;38.90;;;6.20;;
22774;SDS011;11554;51.106;3.684;2023-01-05T09:20:00;38.50;;;6.40;;
22774;SDS011;11554;51.106;3.684;2023-01-05T09:25:00;38.50;;;6.40;;
22774;SDS011;11554;51.106;3.684;2023-01-05T09:30:00;39.10;;;6.30;;
22774;SDS011;11554;51.106;3.684;2023-01-05T09:35:00;39.10;;;6.30;;
22774;SDS011;11554;51.106;3.684;2023-01-05T09:40:00;42.80;;;6.60;;
22774;SDS011;11554;51.106;3.684;2023-01-05T09:45:03;42.80;;;6.60;;
22774;SDS011;11554;51.106;3.684;2023-01-05T09:50:01;37.60;;;5.70;;
22774;SDS011;11554;51.106;3.684;2023-01-05T09:55:02;37.60;;;5.70;;
22774;SDS011;11554;51.106;3.684;2023-01-05T10:00:03;39.50;;;6.30;;
22774;SDS011;11554;51.106;3.684;2023-01-05T10:05:01;39.50;;;6.30;;
22774;SDS011;11554;51.106;3.684;2023-01-05T10:10:04;45.20;;;6.60;;
22774;SDS011;11554;51.106;3.684;2023-01-05T10:15:04;45.20;;;6.60;;
22774;SDS011;11554;51.106;3.684;2023-01-05T10:20:00;38.70;;;6.40;;
22774;SDS011;11554;51.106;3.684;2023-01-05T10:25:04;38.70;;;6.40;;
22774;SDS011;11554;51.106;3.684;2023-01-05T10:30:09;39.60;;;6.40;;
22774;SDS011;11554;51.106;3.684;2023-01-05T10:35:03;39.60;;;6.40;;
22774;SDS011;11554;51.106;3.684;2023-01-05T10:40:07;35.60;;;6.10;;
22774;SDS011;11554;51.106;3.684;2023-01-05T10:45:02;35.60;;;6.10;;
22774;SDS011;11554;51.106;3.684;2023-01-05T10:50:01;37.90;;;5.80;;
22774;SDS011;11554;51.106;3.684;2023-01-05T10:55:00;37.90;;;5.80;;
22774;SDS011;11554;51.106;3.684;2023-01-05T11:00:05;44.60;;;6.10;;
22774;SDS011;11554;51.106;3.684;2023-01-05T11:05:05;44.60;;;6.10;;
22774;SDS011;11554;51.106;3.684;2023-01-05T11:10:01;42.10;;;5.90;;
22774;SDS011;11554;51.106;3.684;2023-01-05T11:15:00;42.10;;;5.90;;
22774;SDS011;11554;51.106;3.684;2023-01-05T11:20:00;36.80;;;5.90;;
22774;SDS011;11554;51.106;3.684;2023-01-05T11:25:12;36.80;;;5.90;;
22774;SDS011;11554;51.106;3.684;2023-01-05T11:30:17;40.60;;;6.20;;
22774;SDS011;11554;51.106;3.684;2023-01-05T11:35:00;40.60;;;6.20;;
22774;SDS011;11554;51.106;3.684;2023-01-05T11:40:02;35.60;;;6.60;;
22774;SDS011;11554;51.106;3.684;2023-01-05T11:45:03;35.60;;;6.60;;
22774;SDS011;11554;51.106;3.684;2023-01-05T11:50:04;41.20;;;6.10;;
22774;SDS011;11554;51.106;3.684;2023-01-05T12:00:01;36.00;;;6.30;;
22774;SDS011;11554;51.106;3.684;2023-01-05T12:05:13;36.00;;;6.30;;
22774;SDS011;11554;51.106;3.684;2023-01-05T12:10:17;40.00;;;6.80;;
22774;SDS011;11554;51.106;3.684;2023-01-05T12:20:11;38.10;;;7.20;;
22774;SDS011;11554;51.106;3.684;2023-01-05T12:25:09;38.10;;;7.20;;
22774;SDS011;11554;51.106;3.684;2023-01-05T12:30:12;35.80;;;5.80;;
22774;SDS011;11554;51.106;3.684;2023-01-05T12:35:18;35.80;;;5.80;;
22774;SDS011;11554;51.106;3.684;2023-01-05T12:40:13;37.00;;;6.10;;
22774;SDS011;11554;51.106;3.684;2023-01-05T12:45:18;37.00;;;6.10;;
22774;SDS011;11554;51.106;3.684;2023-01-05T12:50:05;30.50;;;5.30;;
22774;SDS011;11554;51.106;3.684;2023-01-05T12:55:03;30.50;;;5.30;;
22774;SDS011;11554;51.106;3.684;2023-01-05T13:00:06;32.40;;;11.70;;
22774;SDS011;11554;51.106;3.684;2023-01-05T13:05:03;32.40;;;11.70;;
22774;SDS011;11554;51.106;3.684;2023-01-05T13:10:02;22.80;;;5.00;;
22774;SDS011;11554;51.106;3.684;2023-01-05T13:15:06;22.80;;;5.00;;
22774;SDS011;11554;51.106;3.684;2023-01-05T13:20:03;24.80;;;5.60;;
22774;SDS011;11554;51.106;3.684;2023-01-05T13:25:03;24.80;;;5.60;;
22774;SDS011;11554;51.106;3.684;2023-01-05T13:30:01;24.00;;;6.80;;
22774;SDS011;11554;51.106;3.684;2023-01-05T13:35:13;24.00;;;6.80;;
22774;SDS011;11554;51.106;3.684;2023-01-05T13:40:19;30.50;;;8.20;;
22774;SDS011;11554;51.106;3.684;2023-01-05T13:45:14;30.50;;;8.20;;
22774;SDS011;11554;51.106;3.684;2023-01-05T13:50:16;33.80;;;7.90;;
22774;SDS011;11554;51.106;3.684;2023-01-05T13:55:01;33.80;;;7.90;;
22774;SDS011;11554;51.106;3.684;2023-01-05T14:00:03;30.20;;;7.90;;
22774;SDS011;11554;51.106;3.684;2023-01-05T14:05:01;30.20;;;7.90;;
22774;SDS011;11554;51.106;3.684;2023-01-05T14:10:00;28.80;;;8.20;;
22774;SDS011;11554;51.106;3.684;2023-01-05T14:15:02;28.80;;;8.20;;
22774;SDS011;11554;51.106;3.684;2023-01-05T14:20:00;22.20;;;7.60;;
22774;SDS011;11554;51.106;3.684;2023-01-05T14:30:01;19.00;;;5.90;;
22774;SDS011;11554;51.106;3.684;2023-01-05T14:35:05;19.00;;;5.90;;
22774;SDS011;11554;51.106;3.684;2023-01-05T14:40:01;15.10;;;5.90;;
22774;SDS011;11554;51.106;3.684;2023-01-05T14:45:02;15.10;;;5.90;;
22774;SDS011;11554;51.106;3.684;2023-01-05T14:50:00;13.50;;;5.40;;
22774;SDS011;11554;51.106;3.684;2023-01-05T14:55:17;13.50;;;5.40;;
22774;SDS011;11554;51.106;3.684;2023-01-05T15:00:05;11.60;;;5.20;;
22774;SDS011;11554;51.106;3.684;2023-01-05T15:05:04;11.60;;;5.20;;
22774;SDS011;11554;51.106;3.684;2023-01-05T15:10:15;6.90;;;4.70;;
22774;SDS011;11554;51.106;3.684;2023-01-05T15:15:15;6.90;;;4.70;;
22774;SDS011;11554;51.106;3.684;2023-01-05T15:20:14;7.60;;;4.90;;
22774;SDS011;11554;51.106;3.684;2023-01-05T15:30:14;6.30;;;4.90;;
22774;SDS011;11554;51.106;3.684;2023-01-05T15:35:10;6.30;;;4.90;;
22774;SDS011;11554;51.106;3.684;2023-01-05T15:40:02;6.80;;;4.80;;
22774;SDS011;11554;51.106;3.684;2023-01-05T15:45:00;6.80;;;4.80;;
22774;SDS011;11554;51.106;3.684;2023-01-05T15:50:01;6.40;;;4.00;;
22774;SDS011;11554;51.106;3.684;2023-01-05T15:55:03;6.40;;;4.00;;
22774;SDS011;11554;51.106;3.684;2023-01-05T16:00:00;6.00;;;3.90;;
22774;SDS011;11554;51.106;3.684;2023-01-05T16:05:10;6.00;;;3.90;;
22774;SDS011;11554;51.106;3.684;2023-01-05T16:10:00;5.10;;;3.60;;
22774;SDS011;11554;51.106;3.684;2023-01-05T16:15:03;5.10;;;3.60;;
22774;SDS011;11554;51.106;3.684;2023-01-05T16:20:03;6.60;;;4.50;;
22774;SDS011;11554;51.106;3.684;2023-01-05T16:25:04;6.60;;;4.50;;
22774;SDS011;11554;51.106;3.684;2023-01-05T16:30:12;6.20;;;4.80;;
22774;SDS011;11554;51.106;3.684;2023-01-05T16:40:00;7.90;;;6.20;;
22774;SDS011;11554;51.106;3.684;2023-01-05T16:45:01;7.90;;;6.20;;
22774;SDS011;11554;51.106;3.684;2023-01-05T16:55:13;7.40;;;6.00;;
22774;SDS011;11554;51.106;3.684;2023-01-05T17:00:00;6.70;;;5.70;;
22774;SDS011;11554;51.106;3.684;2023-01-05T17:05:00;6.70;;;5.70;;
22774;SDS011;11554;51.106;3.684;2023-01-05T17:10:00;6.60;;;5.80;;
22774;SDS011;11554;51.106;3.684;2023-01-05T17:15:02;6.60;;;5.80;;
22774;SDS011;11554;51.106;3.684;2023-01-05T17:20:01;7.50;;;6.40;;
22774;SDS011;11554;51.106;3.684;2023-01-05T17:25:00;7.50;;;6.40;;
22774;SDS011;11554;51.106;3.684;2023-01-05T17:30:00;8.10;;;6.20;;
22774;SDS011;11554;51.106;3.684;2023-01-05T17:35:00;8.10;;;6.20;;
22774;SDS011;11554;51.106;3.684;2023-01-05T17:40:00;7.10;;;5.50;;
22774;SDS011;11554;51.106;3.684;2023-01-05T17:45:00;7.10;;;5.50;;
22774;SDS011;11554;51.106;3.684;2023-01-05T17:50:00;7.20;;;5.90;;
22774;SDS011;11554;51.106;3.684;2023-01-05T17:55:00;7.20;;;5.90;;
22774;SDS011;11554;51.106;3.684;2023-01-05T18:00:00;8.60;;;6.40;;
22774;SDS011;11554;51.106;3.684;2023-01-05T18:05:00;8.60;;;6.40;;
22774;SDS011;11554;51.106;3.684;2023-01-05T18:10:00;10.50;;;6.60;;
22774;SDS011;11554;51.106;3.684;2023-01-05T18:15:00;10.50;;;6.60;;
22774;SDS011;11554;51.106;3.684;2023-01-05T18:20:00;7.40;;;4.60;;
22774;SDS011;11554;51.106;3.684;2023-01-05T18:25:00;7.40;;;4.60;;
22774;SDS011;11554;51.106;3.684;2023-01-05T18:30:01;9.70;;;4.70;;
22774;SDS011;11554;51.106;3.684;2023-01-05T18:35:00;9.70;;;4.70;;
22774;SDS011;11554;51.106;3.684;2023-01-05T18:40:00;9.00;;;4.80;;
22774;SDS011;11554;51.106;3.684;2023-01-05T18:45:00;9.00;;;4.80;;
22774;SDS011;11554;51.106;3.684;2023-01-05T18:50:00;23.10;;;5.50;;
22774;SDS011;11554;51.106;3.684;2023-01-05T18:55:00;23.10;;;5.50;;
22774;SDS011;11554;51.106;3.684;2023-01-05T19:00:00;10.80;;;4.90;;
22774;SDS011;11554;51.106;3.684;2023-01-05T19:05:00;10.80;;;4.90;;
22774;SDS011;11554;51.106;3.684;2023-01-05T19:10:00;10.30;;;5.40;;
22774;SDS011;11554;51.106;3.684;2023-01-05T19:15:00;10.30;;;5.40;;
22774;SDS011;11554;51.106;3.684;2023-01-05T19:20:00;15.00;;;4.90;;
22774;SDS011;11554;51.106;3.684;2023-01-05T19:25:00;15.00;;;4.90;;
22774;SDS011;11554;51.106;3.684;2023-01-05T19:30:00;12.30;;;3.70;;
22774;SDS011;11554;51.106;3.684;2023-01-05T19:35:00;12.30;;;3.70;;
22774;SDS011;11554;51.106;3.684;2023-01-05T19:40:00;11.70;;;3.90;;
22774;SDS011;11554;51.106;3.684;2023-01-05T19:45:00;11.70;;;3.90;;
22774;SDS011;11554;51.106;3.684;2023-01-05T19:50:00;9.80;;;3.60;;
22774;SDS011;11554;51.106;3.684;2023-01-05T19:55:00;9.80;;;3.60;;
22774;SDS011;11554;51.106;3.684;2023-01-05T20:00:00;14.50;;;3.70;;
22774;SDS011;11554;51.106;3.684;2023-01-05T20:05:00;14.50;;;3.70;;
22774;SDS011;11554;51.106;3.684;2023-01-05T20:10:00;11.90;;;2.70;;
22774;SDS011;11554;51.106;3.684;2023-01-05T20:15:00;11.90;;;2.70;;
22774;SDS011;11554;51.106;3.684;2023-01-05T20:20:00;10.70;;;2.70;;
22774;SDS011;11554;51.106;3.684;2023-01-05T20:25:00;10.70;;;2.70;;
22774;SDS011;11554;51.106;3.684;2023-01-05T20:30:00;11.00;;;2.80;;
22774;SDS011;11554;51.106;3.684;2023-01-05T20:35:00;11.00;;;2.80;;
22774;SDS011;11554;51.106;3.684;2023-01-05T20:40:01;11.10;;;2.80;;
22774;SDS011;11554;51.106;3.684;2023-01-05T20:45:00;11.10;;;2.80;;
22774;SDS011;11554;51.106;3.684;2023-01-05T20:50:00;10.30;;;2.80;;
22774;SDS011;11554;51.106;3.684;2023-01-05T20:55:00;10.30;;;2.80;;
22774;SDS011;11554;51.106;3.684;2023-01-05T21:00:00;13.10;;;3.10;;
22774;SDS011;11554;51.106;3.684;2023-01-05T21:05:00;13.10;;;3.10;;
22774;SDS011;11554;51.106;3.684;2023-01-05T21:10:00;9.60;;;2.70;;
22774;SDS011;11554;51.106;3.684;2023-01-05T21:15:00;9.60;;;2.70;;
22774;SDS011;11554;51.106;3.684;2023-01-05T21:20:00;8.40;;;3.00;;
22774;SDS011;11554;51.106;3.684;2023-01-05T21:25:00;8.40;;;3.00;;
22774;SDS011;11554;51.106;3.684;2023-01-05T21:30:00;10.10;;;2.90;;
22774;SDS011;11554;51.106;3.684;2023-01-05T21:35:00;10.10;;;2.90;;
22774;SDS011;11554;51.106;3.684;2023-01-05T21:40:00;7.40;;;2.60;;
22774;SDS011;11554;51.106;3.684;2023-01-05T21:45:00;7.40;;;2.60;;
22774;SDS011;11554;51.106;3.684;2023-01-05T21:50:00;7.10;;;2.50;;
22774;SDS011;11554;51.106;3.684;2023-01-05T21:55:00;7.10;;;2.50;;
22774;SDS011;11554;51.106;3.684;2023-01-05T22:00:00;10.30;;;2.80;;
22774;SDS011;11554;51.106;3.684;2023-01-05T22:05:00;10.30;;;2.80;;
22774;SDS011;11554;51.106;3.684;2023-01-05T22:10:00;7.90;;;2.70;;
22774;SDS011;11554;51.106;3.684;2023-01-05T22:15:00;7.90;;;2.70;;
22774;SDS011;11554;51.106;3.684;2023-01-05T22:20:00;5.80;;;2.40;;
22774;SDS011;11554;51.106;3.684;2023-01-05T22:25:00;5.80;;;2.40;;
22774;SDS011;11554;51.106;3.684;2023-01-05T22:30:00;8.10;;;2.70;;
22774;SDS011;11554;51.106;3.684;2023-01-05T22:35:00;8.10;;;2.70;;
22774;SDS011;11554;51.106;3.684;2023-01-05T22:40:00;8.40;;;2.70;;
22774;SDS011;11554;51.106;3.684;2023-01-05T22:45:00;8.40;;;2.70;;
22774;SDS011;11554;51.106;3.684;2023-01-05T22:50:00;9.20;;;2.80;;
22774;SDS011;11554;51.106;3.684;2023-01-05T22:55:00;9.20;;;2.80;;
22774;SDS011;11554;51.106;3.684;2023-01-05T23:00:00;8.10;;;3.20;;
22774;SDS011;11554;51.106;3.684;2023-01-05T23:05:00;8.10;;;3.20;;
22774;SDS011;11554;51.106;3.684;2023-01-05T23:10:00;9.20;;;2.40;;
22774;SDS011;11554;51.106;3.684;2023-01-05T23:15:00;9.20;;;2.40;;
22774;SDS011;11554;51.106;3.684;2023-01-05T23:20:00;6.30;;;1.90;;
22774;SDS011;11554;51.106;3.684;2023-01-05T23:25:00;6.30;;;1.90;;
22774;SDS011;11554;51.106;3.684;2023-01-05T23:30:00;6.90;;;2.20;;
22774;SDS011;11554;51.106;3.684;2023-01-05T23:35:00;6.90;;;2.20;;
22774;SDS011;11554;51.106;3.684;2023-01-05T23:40:00;8.00;;;1.90;;
22774;SDS011;11554;51.106;3.684;2023-01-05T23:45:00;8.00;;;1.90;;
22774;SDS011;11554;51.106;3.684;2023-01-05T23:50:00;6.50;;;1.60;;
22774;SDS011;11554;51.106;3.684;2023-01-05T23:55:00;6.50;;;1.60;;
